Dade City, FL

1:09 PM EST on November 24, 2014 (GMT -0500)
Dade City at Blanton | Change Station
CLOSE
Current Station
Personal Weather Station
Location: Dade City, FL
Elevation: 170 ft
Nearby Weather Stations

Elev 170 ft 28.40 °N, 82.25 °W | Updated 15 seconds ago

Partly Cloudy
Partly Cloudy
83.0 °F
Feels Like 87 °F
N
5.0
Wind Variable Wind from SSW
Gusts 5.0 mph

Today
High -- | Low -- °F
--% Chance of Precip.
Yesterday
High -- | Low -- °F
Precip. -- in
6:58 AM 5:32 PM
Waxing Crescent, 6% visible
Pressure 29.95 in
Visibility 10.0 miles
Clouds Scattered Clouds 3000 ft
Scattered Clouds 4000 ft
Scattered Clouds 4900 ft
Heat Index 87 °F
Dew Point 70 °F
Humidity 65%
Rainfall 0.00 in
Snow Depth Not available.
UV 5 out of 12
Pollen 1.60 out of 12
Air Quality Not available.
Flu Activity Not available.
METAR KZPH 241755Z AUTO 22011G15KT 10SM SCT030 SCT040 SCT049 29/20 A2995 RMK AO2

More Conditions Fewer Conditions

Pressure 29.95 in
Visibility 10.0 miles
Clouds Scattered Clouds 3000 ft
Scattered Clouds 4000 ft
Scattered Clouds 4900 ft
Heat Index 87 °F
Dew Point 70 °F
Humidity 65%
Rainfall 0.00 in
Snow Depth Not available.
UV 5 out of 12
Pollen 1.60 out of 12
Air Quality Not available.
Flu Activity Not available.
METAR KZPH 241755Z AUTO 22011G15KT 10SM SCT030 SCT040 SCT049 29/20 A2995 RMK AO2

More Conditions Fewer Conditions

10-Day Weather Forecast

Almanac

Astronomy

Nov. 24, 2014 Rise Set
Actual Time
Civil Twilight
Nautical Twilight
Astronomical Twilight
Moon
Length of Visible Light
Length of Day
Tomorrow will be .
, % of the Moon is Illuminated

Today's Extremes

State Highs State Lows

Community

WunderPhotos

Upload Photos

1,773,381 photos uploaded!

WunderBlogs® & News

Nearby

Air Quality

  Air Quality AQ Index Pollutant
Not available.

Snow Depth

Station Depth Elevation

Earthquake Activity

City Distance Mag. Time & Date
Minimum magnitude displayed is 2.5.

Coastal Water Temperatures

Place Temperature

Nearby Weather Stations